Time;durP1;ratioP1;P1;durP2;ratioP2;P2;SDS_P1;SDS_P2;PMS_P1;PMS_P2;Temp;Humidity;BMP_temperature;BMP_pressure;BME280_temperature;BME280_humidity;BME280_pressure;Samples;Min_cycle;Max_cycle;Signal;HPM_P1;HPM_P2
2023/05/15 00:01:22;;;;;;;13.35;10.50;;;15.00;99.90;;;;;;6217845;23;19999;-90
2023/05/15 00:03:47;;;;;;;12.15;9.75;;;15.00;99.90;;;;;;6244055;23;20076;-91
2023/05/15 00:06:13;;;;;;;11.90;10.70;;;15.00;99.90;;;;;;6217870;23;20056;-91
2023/05/15 00:08:39;;;;;;;12.60;11.30;;;15.00;99.90;;;;;;6217890;23;19989;-90
2023/05/15 00:11:05;;;;;;;12.45;10.88;;;15.00;99.90;;;;;;6217907;23;20001;-93
2023/05/15 00:13:34;;;;;;;11.70;10.50;;;14.90;99.90;;;;;;6199609;23;20071;-93
2023/05/15 00:16:00;;;;;;;13.60;11.48;;;14.90;99.90;;;;;;6192225;23;20004;-91
2023/05/15 00:18:26;;;;;;;13.95;10.38;;;14.80;99.90;;;;;;6217748;23;20028;-91
2023/05/15 00:20:52;;;;;;;12.35;11.05;;;14.80;99.90;;;;;;6191056;23;20001;-93
2023/05/15 00:23:17;;;;;;;12.43;10.98;;;14.80;99.90;;;;;;6191477;23;20008;-91
2023/05/15 00:25:43;;;;;;;14.05;11.20;;;14.80;99.90;;;;;;6190874;23;20009;-92
2023/05/15 00:28:09;;;;;;;13.52;11.90;;;14.70;99.90;;;;;;6191491;23;20012;-93
2023/05/15 00:30:34;;;;;;;12.98;10.98;;;14.70;99.90;;;;;;6166099;23;20331;-93
2023/05/15 00:33:00;;;;;;;12.63;9.98;;;14.60;99.90;;;;;;6166469;23;20327;-94
2023/05/15 00:35:28;;;;;;;15.25;10.73;;;14.60;99.90;;;;;;6168138;23;20004;-91
2023/05/15 00:37:54;;;;;;;11.68;9.48;;;14.50;99.90;;;;;;6193000;23;20424;-94
2023/05/15 00:40:22;;;;;;;12.00;10.35;;;14.50;99.90;;;;;;6193204;23;20035;-91
2023/05/15 00:42:49;;;;;;;11.15;9.98;;;14.50;99.90;;;;;;6219278;23;20012;-92
2023/05/15 00:45:15;;;;;;;10.90;9.80;;;14.50;99.90;;;;;;6193009;23;20047;-92
2023/05/15 00:47:42;;;;;;;11.80;10.35;;;14.50;99.90;;;;;;6192970;23;20367;-92
2023/05/15 00:50:08;;;;;;;11.88;10.57;;;14.50;99.90;;;;;;6168085;23;20012;-93
2023/05/15 00:52:36;;;;;;;16.25;11.00;;;14.50;99.90;;;;;;6219211;23;20001;-92
2023/05/15 00:55:02;;;;;;;12.10;9.88;;;14.50;99.90;;;;;;6193384;23;20039;-92
2023/05/15 00:57:29;;;;;;;11.65;10.38;;;14.50;99.90;;;;;;6192896;23;20016;-92
2023/05/15 00:59:56;;;;;;;12.50;10.32;;;14.40;99.90;;;;;;6192558;23;20016;-91
2023/05/15 01:02:22;;;;;;;11.18;10.02;;;14.50;99.90;;;;;;6193267;23;20011;-93
2023/05/15 01:04:48;;;;;;;10.88;9.73;;;14.50;99.90;;;;;;6192084;23;20032;-94
2023/05/15 01:07:14;;;;;;;13.05;10.98;;;14.40;99.90;;;;;;6192318;23;20013;-94
2023/05/15 01:09:43;;;;;;;11.00;9.90;;;14.40;99.90;;;;;;6192853;23;20001;-92
2023/05/15 01:12:12;;;;;;;11.73;10.15;;;14.40;99.90;;;;;;6192233;23;20009;-91
2023/05/15 01:14:38;;;;;;;11.38;9.95;;;14.40;99.90;;;;;;6192725;23;20154;-93
2023/05/15 01:17:04;;;;;;;12.90;10.60;;;14.40;99.90;;;;;;6192921;23;20418;-92
2023/05/15 01:19:30;;;;;;;12.32;10.50;;;14.30;99.90;;;;;;6192657;23;20011;-93
2023/05/15 01:22:18;;;;;;;13.63;10.55;;;14.30;99.90;;;;;;6193059;23;20051;-93
2023/05/15 01:25:21;;;;;;;13.07;11.00;;;14.30;99.90;;;;;;6193594;23;20013;-93
2023/05/15 01:27:55;;;;;;;12.38;10.00;;;14.30;99.90;;;;;;6193228;23;20016;-92
2023/05/15 01:30:33;;;;;;;11.63;10.43;;;14.30;99.90;;;;;;6219709;23;20013;-91
2023/05/15 01:33:04;;;;;;;12.82;10.35;;;14.20;99.90;;;;;;6193175;23;20415;-93
2023/05/15 01:35:44;;;;;;;12.02;10.63;;;14.20;99.90;;;;;;6193027;23;20011;-94
2023/05/15 01:38:26;;;;;;;12.05;10.32;;;14.20;99.90;;;;;;6196206;23;20001;-92
2023/05/15 01:41:23;;;;;;;11.13;9.50;;;14.20;99.90;;;;;;6219034;23;20005;-92
2023/05/15 01:43:55;;;;;;;13.57;11.18;;;14.20;99.90;;;;;;6210449;23;20000;-91
2023/05/15 01:46:26;;;;;;;13.77;11.60;;;14.20;99.90;;;;;;6218458;23;20017;-94
2023/05/15 01:48:53;;;;;;;15.15;11.55;;;14.10;99.90;;;;;;6210291;23;20043;-92
2023/05/15 01:51:21;;;;;;;12.65;10.52;;;14.10;99.90;;;;;;6194066;23;20091;-91
2023/05/15 01:53:49;;;;;;;11.60;10.27;;;14.10;99.90;;;;;;6192547;23;20067;-93
2023/05/15 01:56:18;;;;;;;11.45;10.25;;;14.10;99.90;;;;;;6192965;23;20046;-91
2023/05/15 01:58:45;;;;;;;11.63;10.43;;;14.10;99.90;;;;;;6192151;23;20012;-91
2023/05/15 02:01:12;;;;;;;13.50;11.77;;;14.10;99.90;;;;;;6192433;23;20005;-92
2023/05/15 02:03:39;;;;;;;11.82;10.45;;;14.10;99.90;;;;;;6191961;23;20008;-92
2023/05/15 02:06:08;;;;;;;12.98;10.30;;;14.10;99.90;;;;;;6218630;23;20054;-92
2023/05/15 02:08:35;;;;;;;11.63;10.43;;;14.10;99.90;;;;;;6192727;23;20020;-94
2023/05/15 02:11:02;;;;;;;14.02;10.07;;;14.00;99.90;;;;;;6167358;23;20020;-92
2023/05/15 02:13:30;;;;;;;12.70;10.05;;;14.00;99.90;;;;;;6218733;23;20434;-94
2023/05/15 02:15:56;;;;;;;11.20;10.13;;;14.00;99.90;;;;;;6191939;23;20304;-93
2023/05/15 02:18:22;;;;;;;11.40;10.20;;;14.00;99.90;;;;;;6191980;23;19997;-94
2023/05/15 02:20:48;;;;;;;12.90;10.30;;;14.00;99.90;;;;;;6218499;23;20012;-91
2023/05/15 02:23:14;;;;;;;11.40;10.23;;;13.90;99.90;;;;;;6167175;23;20077;-93
2023/05/15 02:26:12;;;;;;;11.27;9.98;;;13.90;99.90;;;;;;6218193;23;20012;-95
2023/05/15 02:29:11;;;;;;;11.05;9.70;;;13.90;99.90;;;;;;6191665;23;20457;-92
2023/05/15 02:31:57;;;;;;;13.15;10.32;;;13.90;99.90;;;;;;6218314;23;20072;-92
2023/05/15 02:34:46;;;;;;;13.98;10.52;;;13.80;99.90;;;;;;6218359;23;20068;-93
2023/05/15 02:37:17;;;;;;;12.32;10.07;;;13.80;99.90;;;;;;6192009;23;20047;-92
2023/05/15 02:39:44;;;;;;;13.73;10.35;;;13.80;99.90;;;;;;6191752;23;20007;-94
2023/05/15 02:42:13;;;;;;;11.70;9.75;;;13.80;99.90;;;;;;6192211;23;20005;-93
2023/05/15 02:44:41;;;;;;;11.48;10.02;;;13.80;99.90;;;;;;6191789;23;20004;-93
2023/05/15 02:47:08;;;;;;;12.25;10.95;;;13.80;99.90;;;;;;6191715;23;20019;-92
2023/05/15 02:49:37;;;;;;;11.23;10.00;;;13.80;99.90;;;;;;6192025;23;20032;-93
2023/05/15 02:52:05;;;;;;;12.68;10.23;;;13.80;99.90;;;;;;6192241;23;20001;-91
2023/05/15 02:54:31;;;;;;;11.80;10.55;;;13.70;99.90;;;;;;6167661;23;20000;-94
2023/05/15 02:56:57;;;;;;;13.98;10.90;;;13.70;99.90;;;;;;6166775;23;20019;-93
2023/05/15 02:59:23;;;;;;;13.07;11.27;;;13.70;99.90;;;;;;6192161;23;20004;-92
2023/05/15 03:01:49;;;;;;;12.90;11.60;;;13.70;99.90;;;;;;6166738;23;20070;-90
2023/05/15 03:04:15;;;;;;;13.80;11.20;;;13.70;99.90;;;;;;6191392;23;20335;-90
2023/05/15 03:06:43;;;;;;;14.57;11.88;;;13.60;99.90;;;;;;6191611;23;20008;-91
2023/05/15 03:09:09;;;;;;;11.90;10.70;;;13.60;99.90;;;;;;6191837;23;20005;-90
2023/05/15 03:11:34;;;;;;;14.32;11.35;;;13.60;99.90;;;;;;6166926;23;20013;-91
2023/05/15 03:14:00;;;;;;;12.73;11.43;;;13.60;99.90;;;;;;6218562;23;20005;-90
2023/05/15 03:16:28;;;;;;;14.85;12.75;;;13.60;99.90;;;;;;6209803;23;20011;-89
2023/05/15 03:18:54;;;;;;;12.65;11.35;;;13.60;99.90;;;;;;6218025;23;20005;-91
2023/05/15 03:21:20;;;;;;;16.95;12.10;;;13.50;99.90;;;;;;6218849;23;20011;-92
2023/05/15 03:23:46;;;;;;;13.88;11.98;;;13.60;99.90;;;;;;6212148;23;20001;-92
2023/05/15 03:26:11;;;;;;;15.93;12.25;;;13.50;99.90;;;;;;6215303;23;20072;-91
2023/05/15 03:28:37;;;;;;;17.48;13.73;;;13.50;99.90;;;;;;6182596;23;20001;-91
2023/05/15 03:31:07;;;;;;;16.95;14.68;;;13.50;99.90;;;;;;6192667;23;20015;-92
2023/05/15 03:33:33;;;;;;;17.40;14.85;;;13.50;99.90;;;;;;6191774;23;20087;-90
2023/05/15 03:35:59;;;;;;;20.48;16.23;;;13.50;99.90;;;;;;6191229;23;20009;-92
2023/05/15 03:38:27;;;;;;;16.70;14.90;;;13.50;99.90;;;;;;6191226;23;20489;-92
2023/05/15 03:40:53;;;;;;;19.98;16.13;;;13.50;99.90;;;;;;6217966;23;20007;-91
2023/05/15 03:43:19;;;;;;;19.30;16.08;;;13.50;99.90;;;;;;6190954;23;20079;-90
2023/05/15 03:45:45;;;;;;;19.98;16.75;;;13.50;99.90;;;;;;6166763;23;20449;-90
2023/05/15 03:48:11;;;;;;;20.85;16.85;;;13.50;99.90;;;;;;6191724;23;20003;-91
2023/05/15 03:50:38;;;;;;;22.65;18.05;;;13.50;99.90;;;;;;6191146;23;20476;-91
2023/05/15 03:53:03;;;;;;;23.30;17.90;;;13.40;99.90;;;;;;6190983;23;20072;-90
2023/05/15 03:55:32;;;;;;;19.17;14.95;;;13.40;99.90;;;;;;6166584;23;20104;-91
2023/05/15 03:57:57;;;;;;;21.45;17.05;;;13.40;99.90;;;;;;6190834;23;20007;-90
2023/05/15 04:00:28;;;;;;;20.65;18.13;;;13.40;99.90;;;;;;6191638;23;19996;-92
2023/05/15 04:02:56;;;;;;;20.42;17.00;;;13.40;99.90;;;;;;6167144;23;20012;-91
2023/05/15 04:05:24;;;;;;;20.67;16.90;;;13.50;99.90;;;;;;6192088;23;20296;-90
2023/05/15 04:07:49;;;;;;;19.95;17.60;;;13.50;99.90;;;;;;6190993;23;20003;-91
2023/05/15 04:10:15;;;;;;;23.92;18.80;;;13.50;99.90;;;;;;6216825;23;20028;-91
2023/05/15 04:12:41;;;;;;;19.42;16.92;;;13.50;99.90;;;;;;6191673;23;20001;-91
2023/05/15 04:15:22;;;;;;;20.67;17.60;;;13.50;99.90;;;;;;6166715;23;20012;-90
2023/05/15 04:17:51;;;;;;;22.42;17.92;;;13.50;99.90;;;;;;6217256;23;20000;-91
2023/05/15 04:20:23;;;;;;;21.92;17.67;;;13.50;99.90;;;;;;6191476;23;20000;-91
2023/05/15 04:22:51;;;;;;;;;;;13.60;99.90;;;;;;6192034;23;20005;-91
2023/05/15 04:25:19;;;;;;;21.40;17.63;;;13.60;99.90;;;;;;6217921;23;19982;-91
2023/05/15 04:27:45;;;;;;;22.88;17.33;;;13.60;99.90;;;;;;6186638;23;20020;-90
2023/05/15 04:30:11;;;;;;;22.40;17.20;;;13.60;99.90;;;;;;6186280;23;20030;-94
2023/05/15 04:32:38;;;;;;;21.70;17.42;;;13.60;99.90;;;;;;6190451;23;20001;-91
2023/05/15 04:35:08;;;;;;;23.65;17.88;;;13.70;99.90;;;;;;6217531;23;20004;-92
2023/05/15 04:37:35;;;;;;;21.70;17.70;;;13.70;99.90;;;;;;6191532;23;20005;-90
2023/05/15 04:40:01;;;;;;;22.15;18.88;;;13.70;99.90;;;;;;6191192;23;20008;-91
2023/05/15 04:42:27;;;;;;;20.98;17.15;;;13.70;99.90;;;;;;6166594;23;20009;-91
2023/05/15 04:44:53;;;;;;;25.48;18.08;;;13.70;99.90;;;;;;6191194;23;20493;-91
2023/05/15 04:47:19;;;;;;;21.17;16.77;;;13.70;99.90;;;;;;6191496;23;20012;-92
2023/05/15 04:49:46;;;;;;;19.35;17.27;;;13.70;99.90;;;;;;6191970;23;20024;-89
2023/05/15 04:52:15;;;;;;;22.02;18.45;;;13.80;99.90;;;;;;6191562;23;20492;-91
2023/05/15 04:54:49;;;;;;;18.40;16.25;;;13.80;99.90;;;;;;6194872;23;19996;-91
2023/05/15 04:57:16;;;;;;;19.38;16.77;;;13.80;99.90;;;;;;6212440;23;20010;-92
2023/05/15 04:59:44;;;;;;;21.58;17.50;;;13.80;99.90;;;;;;6217070;23;20005;-92
2023/05/15 05:02:12;;;;;;;19.98;16.33;;;13.80;99.90;;;;;;6216499;23;20008;-90
2023/05/15 05:04:41;;;;;;;18.05;16.13;;;13.80;99.90;;;;;;6216524;23;20007;-91
2023/05/15 05:07:07;;;;;;;20.23;16.95;;;13.80;99.90;;;;;;6200268;23;20019;-91
2023/05/15 05:09:34;;;;;;;20.88;16.30;;;13.70;99.90;;;;;;6190180;23;20001;-91
2023/05/15 05:12:02;;;;;;;17.88;15.73;;;13.70;99.90;;;;;;6190423;23;20008;-89
2023/05/15 05:14:28;;;;;;;20.35;15.93;;;13.70;99.90;;;;;;6166278;23;20027;-87
2023/05/15 05:16:56;;;;;;;17.92;14.88;;;13.60;99.90;;;;;;6190769;23;20009;-91
2023/05/15 05:19:21;;;;;;;21.80;16.33;;;13.60;99.90;;;;;;6191030;23;19997;-92
2023/05/15 05:21:50;;;;;;;23.50;17.27;;;13.50;99.90;;;;;;6192648;23;20133;-92
2023/05/15 05:24:16;;;;;;;20.38;16.17;;;13.50;99.90;;;;;;6191838;23;20005;-90
2023/05/15 05:26:45;;;;;;;18.65;16.63;;;13.50;99.90;;;;;;6191268;23;20051;-90
2023/05/15 05:29:13;;;;;;;19.10;15.65;;;13.50;99.90;;;;;;6167596;23;20005;-91
2023/05/15 05:31:40;;;;;;;19.77;16.55;;;13.50;99.90;;;;;;6191957;23;20008;-92
2023/05/15 05:34:11;;;;;;;19.35;16.42;;;13.60;99.90;;;;;;6192334;23;20135;-89
2023/05/15 05:36:37;;;;;;;20.95;16.65;;;13.60;99.90;;;;;;6192317;23;20011;-91
2023/05/15 05:39:12;;;;;;;22.65;17.02;;;13.60;99.90;;;;;;6191927;23;20006;-93
2023/05/15 05:41:50;;;;;;;20.13;15.75;;;13.60;99.90;;;;;;6192367;23;20035;-91
2023/05/15 05:44:16;;;;;;;20.45;16.42;;;13.70;99.90;;;;;;6168697;23;20095;-91
2023/05/15 05:46:44;;;;;;;18.52;15.55;;;13.70;99.90;;;;;;6192463;23;20457;-90
2023/05/15 05:49:13;;;;;;;19.23;14.88;;;13.70;99.90;;;;;;6192723;23;20004;-90
2023/05/15 05:51:39;;;;;;;20.05;16.90;;;13.70;99.90;;;;;;6192032;23;20032;-93
2023/05/15 05:54:08;;;;;;;17.30;15.10;;;13.80;99.90;;;;;;6191842;23;20001;-91
2023/05/15 05:56:33;;;;;;;17.05;13.98;;;13.80;99.90;;;;;;6192780;23;20040;-92
2023/05/15 05:59:00;;;;;;;18.27;15.73;;;13.90;99.90;;;;;;6192853;23;20004;-90
2023/05/15 06:01:26;;;;;;;19.42;15.18;;;13.90;99.90;;;;;;6168283;23;20063;-89
2023/05/15 06:03:55;;;;;;;19.77;15.65;;;13.80;99.90;;;;;;6192536;23;20001;-92
2023/05/15 06:06:21;;;;;;;19.95;14.27;;;13.80;99.90;;;;;;6192438;23;20013;-90
2023/05/15 06:09:00;;;;;;;18.80;15.20;;;13.90;99.90;;;;;;6192244;23;20012;-91
2023/05/15 06:11:26;;;;;;;15.63;13.70;;;13.90;99.90;;;;;;6191820;23;20083;-88
2023/05/15 06:13:52;;;;;;;17.35;14.85;;;14.00;99.90;;;;;;6191954;23;20025;-89
2023/05/15 06:16:18;;;;;;;15.98;13.82;;;13.90;99.90;;;;;;6191166;23;20012;-89
2023/05/15 06:18:45;;;;;;;15.45;13.35;;;14.00;99.90;;;;;;6218833;23;20031;-89
2023/05/15 06:21:11;;;;;;;16.27;14.57;;;14.00;99.90;;;;;;6167584;23;20007;-89
2023/05/15 06:23:37;;;;;;;16.77;14.07;;;14.10;99.90;;;;;;6192898;23;20001;-88
2023/05/15 06:26:03;;;;;;;18.25;15.10;;;14.00;99.90;;;;;;6192127;23;20004;-89
2023/05/15 06:28:29;;;;;;;15.50;13.93;;;13.90;99.90;;;;;;6192504;23;20485;-88
2023/05/15 06:30:54;;;;;;;16.83;14.32;;;14.00;99.90;;;;;;6167134;23;20008;-89
2023/05/15 06:33:21;;;;;;;17.73;14.35;;;14.00;99.90;;;;;;6193441;23;20047;-89
2023/05/15 06:35:46;;;;;;;16.50;13.95;;;14.10;99.90;;;;;;6184455;23;20011;-89
2023/05/15 06:38:12;;;;;;;15.40;12.32;;;14.10;99.90;;;;;;6218397;23;19989;-88
2023/05/15 06:40:38;;;;;;;15.27;13.25;;;14.20;99.90;;;;;;6217773;23;20004;-89
2023/05/15 06:43:04;;;;;;;14.80;13.10;;;14.30;99.90;;;;;;6216300;23;19996;-89
2023/05/15 06:45:30;;;;;;;14.93;12.93;;;14.30;99.90;;;;;;6210085;23;20005;-88
2023/05/15 06:47:56;;;;;;;16.80;13.75;;;14.40;99.90;;;;;;6192988;23;20438;-90
2023/05/15 06:50:21;;;;;;;15.30;13.30;;;14.50;99.90;;;;;;6167263;23;20382;-89
2023/05/15 06:52:47;;;;;;;14.85;12.98;;;14.50;99.90;;;;;;6191811;23;20004;-89
2023/05/15 06:55:13;;;;;;;17.48;13.43;;;14.60;99.90;;;;;;6191242;23;20004;-88
2023/05/15 06:57:39;;;;;;;15.85;13.18;;;14.60;99.90;;;;;;6191668;23;20000;-89
2023/05/15 07:00:05;;;;;;;14.65;13.02;;;14.70;99.90;;;;;;6218271;23;20000;-90
2023/05/15 07:02:31;;;;;;;15.20;13.60;;;14.70;99.90;;;;;;6217500;23;19993;-89
2023/05/15 07:04:57;;;;;;;16.88;12.95;;;14.80;99.90;;;;;;6191509;23;20023;-89
2023/05/15 07:07:22;;;;;;;14.48;12.98;;;14.80;99.90;;;;;;6191400;23;20032;-89
2023/05/15 07:09:49;;;;;;;15.20;13.55;;;14.90;99.90;;;;;;6191680;23;20040;-89
2023/05/15 07:12:15;;;;;;;15.57;13.05;;;14.90;99.90;;;;;;6191294;23;20016;-89
2023/05/15 07:14:43;;;;;;;14.60;12.60;;;14.90;99.90;;;;;;6191867;23;20035;-89
2023/05/15 07:17:08;;;;;;;20.02;14.13;;;15.00;99.90;;;;;;6191187;23;20346;-90
2023/05/15 07:19:34;;;;;;;14.43;12.93;;;15.00;99.90;;;;;;6191925;23;20007;-89
2023/05/15 07:22:00;;;;;;;16.52;13.45;;;15.10;99.90;;;;;;6191354;23;20005;-89
2023/05/15 07:24:26;;;;;;;15.27;13.45;;;15.20;99.90;;;;;;6191312;23;20028;-89
2023/05/15 07:26:51;;;;;;;16.48;13.52;;;15.20;99.90;;;;;;6191449;23;20339;-88
2023/05/15 07:29:17;;;;;;;14.65;13.18;;;15.30;99.90;;;;;;6217443;23;20165;-89
2023/05/15 07:31:43;;;;;;;15.98;13.57;;;15.30;99.90;;;;;;6186117;23;20001;-90
2023/05/15 07:34:10;;;;;;;13.80;12.30;;;15.30;99.90;;;;;;6185748;23;20423;-89
2023/05/15 07:36:39;;;;;;;15.32;13.82;;;15.30;99.90;;;;;;6189885;23;20068;-90
2023/05/15 07:39:05;;;;;;;17.65;13.07;;;15.40;99.90;;;;;;6191277;23;20008;-89
2023/05/15 07:41:32;;;;;;;15.90;13.70;;;15.30;99.90;;;;;;6191174;23;20035;-89
2023/05/15 07:43:58;;;;;;;15.40;12.68;;;15.40;99.90;;;;;;6191102;23;20004;-88
2023/05/15 07:46:25;;;;;;;14.38;12.68;;;15.50;99.90;;;;;;6190923;23;20166;-89
2023/05/15 07:48:51;;;;;;;13.13;11.80;;;15.60;99.90;;;;;;6191244;23;20024;-90
2023/05/15 07:51:17;;;;;;;13.93;12.02;;;15.70;99.90;;;;;;6191072;23;20001;-89
2023/05/15 07:53:43;;;;;;;18.02;13.05;;;15.80;99.90;;;;;;6217770;23;20001;-89
2023/05/15 07:56:09;;;;;;;13.70;12.10;;;15.90;99.90;;;;;;6166714;23;20092;-88
2023/05/15 07:58:36;;;;;;;15.55;13.65;;;16.00;99.90;;;;;;6191604;23;19996;-89
2023/05/15 08:01:02;;;;;;;15.75;14.00;;;16.00;99.90;;;;;;6191404;23;20043;-89
2023/05/15 08:03:28;;;;;;;15.38;13.80;;;16.00;99.90;;;;;;6191223;23;20008;-89
2023/05/15 08:05:54;;;;;;;16.17;13.90;;;16.10;99.90;;;;;;6192219;23;20327;-89
2023/05/15 08:08:20;;;;;;;15.23;13.63;;;16.10;99.90;;;;;;6192390;23;20051;-89
2023/05/15 08:10:53;;;;;;;16.60;14.63;;;16.20;99.90;;;;;;6194445;23;21016;-90
2023/05/15 08:13:19;;;;;;;15.90;13.93;;;16.30;99.90;;;;;;6199053;23;20051;-88
2023/05/15 08:15:45;;;;;;;13.55;12.15;;;16.30;99.90;;;;;;6217446;23;20001;-89
2023/05/15 08:18:10;;;;;;;13.95;11.98;;;16.40;99.90;;;;;;6217777;23;19993;-87
2023/05/15 08:20:37;;;;;;;14.45;12.95;;;16.40;99.90;;;;;;6218157;23;20000;-89
2023/05/15 08:23:03;;;;;;;13.82;12.45;;;16.50;99.90;;;;;;6218054;23;19985;-89
2023/05/15 08:25:29;;;;;;;15.32;13.68;;;16.50;99.90;;;;;;6243639;23;20024;-88
2023/05/15 08:27:55;;;;;;;17.40;13.88;;;16.60;99.90;;;;;;6207207;23;20023;-89
2023/05/15 08:30:20;;;;;;;15.70;14.00;;;16.70;99.90;;;;;;6190910;23;19996;-89
2023/05/15 08:32:47;;;;;;;16.02;14.05;;;16.80;99.90;;;;;;6190471;23;20005;-89
2023/05/15 08:35:13;;;;;;;15.80;13.75;;;16.80;99.90;;;;;;6190592;23;20000;-88
2023/05/15 08:37:39;;;;;;;15.50;13.80;;;16.90;99.90;;;;;;6191115;23;20390;-90
2023/05/15 08:40:06;;;;;;;14.30;12.80;;;16.90;99.90;;;;;;6190631;23;20000;-89
2023/05/15 08:42:51;;;;;;;15.98;14.13;;;17.00;99.90;;;;;;6166437;23;20518;-90
2023/05/15 08:45:17;;;;;;;15.32;13.73;;;17.00;99.90;;;;;;6190897;23;20039;-89
2023/05/15 08:47:47;;;;;;;16.27;13.98;;;17.10;99.90;;;;;;6190449;23;20032;-89
2023/05/15 08:50:15;;;;;;;14.68;13.18;;;17.10;99.90;;;;;;6166342;23;20063;-90
2023/05/15 08:52:43;;;;;;;13.45;12.15;;;17.10;99.90;;;;;;6190650;23;20008;-90
2023/05/15 08:55:09;;;;;;;14.10;12.70;;;17.20;99.90;;;;;;6191478;23;20005;-89
2023/05/15 08:57:36;;;;;;;14.98;13.50;;;17.30;99.90;;;;;;6192792;23;20028;-89
2023/05/15 09:00:10;;;;;;;16.83;14.98;;;17.30;99.90;;;;;;6192756;23;20028;-88
2023/05/15 09:02:37;;;;;;;15.13;13.48;;;17.40;99.90;;;;;;6192624;23;20062;-89
2023/05/15 09:05:07;;;;;;;18.38;15.05;;;17.40;99.90;;;;;;6219044;23;19996;-89
2023/05/15 09:07:34;;;;;;;16.33;14.65;;;17.50;99.90;;;;;;6191919;23;20358;-88
2023/05/15 09:10:02;;;;;;;15.35;13.70;;;17.50;99.90;;;;;;6192705;23;20001;-89
2023/05/15 09:12:32;;;;;;;15.05;13.50;;;17.50;99.90;;;;;;6218801;23;20012;-89
2023/05/15 09:15:09;;;;;;;14.55;13.05;;;17.50;99.90;;;;;;6192494;23;20031;-88
2023/05/15 09:17:34;;;;;;;15.63;13.60;;;17.60;99.90;;;;;;6218307;23;20007;-89
2023/05/15 09:20:04;;;;;;;15.02;13.40;;;17.70;99.90;;;;;;6192361;23;20028;-89
2023/05/15 09:22:34;;;;;;;15.82;14.18;;;17.70;99.90;;;;;;6192378;23;20437;-89
2023/05/15 09:25:01;;;;;;;15.68;13.65;;;17.80;99.90;;;;;;6192037;23;20001;-88
2023/05/15 09:27:27;;;;;;;15.50;13.90;;;17.80;99.90;;;;;;6192073;23;20094;-89
2023/05/15 09:29:55;;;;;;;14.52;13.13;;;17.90;99.90;;;;;;6192563;23;20001;-88
2023/05/15 09:32:26;;;;;;;15.60;14.02;;;17.90;99.90;;;;;;6192109;23;20004;-89
2023/05/15 09:34:51;;;;;;;16.13;14.43;;;18.00;99.90;;;;;;6192538;23;20001;-89
2023/05/15 09:37:32;;;;;;;15.98;14.15;;;18.00;99.90;;;;;;6192156;23;20031;-89
2023/05/15 09:40:08;;;;;;;15.75;14.25;;;18.10;99.90;;;;;;6192726;23;20064;-87
2023/05/15 09:42:37;;;;;;;16.10;14.40;;;18.20;99.90;;;;;;6192385;23;20004;-88
2023/05/15 09:45:04;;;;;;;16.40;14.32;;;18.20;99.90;;;;;;6192333;23;20001;-89
2023/05/15 09:47:30;;;;;;;16.88;15.18;;;18.20;99.90;;;;;;6192074;23;20011;-89
2023/05/15 09:49:56;;;;;;;16.83;15.07;;;18.20;99.90;;;;;;6192570;23;20004;-89
2023/05/15 09:52:22;;;;;;;16.83;15.02;;;18.30;99.80;;;;;;6192225;23;20054;-88
2023/05/15 09:54:48;;;;;;;16.27;14.57;;;18.30;99.70;;;;;;6192718;23;20079;-89
2023/05/15 09:57:15;;;;;;;17.55;15.63;;;18.40;99.70;;;;;;6192713;23;20001;-89
2023/05/15 09:59:45;;;;;;;16.83;15.23;;;18.40;99.50;;;;;;6193585;23;20001;-89
2023/05/15 10:02:33;;;;;;;19.83;16.00;;;18.50;99.50;;;;;;6196120;23;20031;-88
2023/05/15 10:04:59;;;;;;;18.60;16.75;;;18.50;99.30;;;;;;6215762;23;19993;-89
2023/05/15 10:07:35;;;;;;;19.45;16.33;;;18.60;99.30;;;;;;6218552;23;20003;-86
2023/05/15 10:10:05;;;;;;;18.23;16.42;;;18.60;99.20;;;;;;6219229;23;19989;-88
2023/05/15 10:12:31;;;;;;;17.63;15.73;;;18.70;99.20;;;;;;6244673;23;20001;-89
2023/05/15 10:14:58;;;;;;;17.88;15.98;;;18.70;99.10;;;;;;6213212;23;20091;-89
2023/05/15 10:17:26;;;;;;;20.65;16.15;;;18.80;99.00;;;;;;6192963;23;20009;-87
2023/05/15 10:19:53;;;;;;;19.30;15.98;;;18.80;99.00;;;;;;6192514;23;20055;-89
2023/05/15 10:22:29;;;;;;;18.20;16.42;;;18.90;99.20;;;;;;6192023;23;20066;-89
2023/05/15 10:25:17;;;;;;;22.20;17.52;;;19.00;98.90;;;;;;6192172;23;20008;-89
2023/05/15 10:27:45;;;;;;;18.38;16.60;;;19.00;98.70;;;;;;6191490;23;20009;-89
2023/05/15 10:30:13;;;;;;;18.13;16.17;;;19.00;98.60;;;;;;6191540;23;20008;-89
2023/05/15 10:32:40;;;;;;;18.55;16.65;;;19.00;98.60;;;;;;6217606;23;20426;-89
2023/05/15 10:35:09;;;;;;;18.25;16.45;;;19.00;98.50;;;;;;6192042;23;20000;-89
2023/05/15 10:37:35;;;;;;;17.60;15.85;;;19.00;98.40;;;;;;6191706;23;20322;-90
2023/05/15 10:40:05;;;;;;;16.05;14.38;;;19.00;98.20;;;;;;6166687;23;20032;-89
2023/05/15 10:42:32;;;;;;;16.75;15.02;;;19.00;98.10;;;;;;6191393;23;20070;-88
2023/05/15 10:45:01;;;;;;;18.70;16.42;;;19.00;98.10;;;;;;6191644;23;20325;-90
2023/05/15 10:47:33;;;;;;;18.95;16.98;;;19.10;98.00;;;;;;6191578;23;20312;-87
2023/05/15 10:49:59;;;;;;;18.88;16.92;;;19.10;98.00;;;;;;6167691;23;20008;-89
2023/05/15 10:52:25;;;;;;;17.90;16.05;;;19.10;98.10;;;;;;6191837;23;20007;-89
2023/05/15 10:55:00;;;;;;;18.48;16.58;;;19.10;98.20;;;;;;6191352;23;20389;-88
2023/05/15 10:57:28;;;;;;;18.85;17.05;;;19.10;98.30;;;;;;6191553;23;20008;-89
2023/05/15 11:00:05;;;;;;;17.35;15.55;;;19.20;98.30;;;;;;6191440;23;20441;-90
2023/05/15 11:02:37;;;;;;;17.45;15.77;;;19.20;98.30;;;;;;6217376;23;20001;-90
2023/05/15 11:05:15;;;;;;;16.85;15.15;;;19.20;98.30;;;;;;6191551;23;19997;-89
2023/05/15 11:07:43;;;;;;;16.52;14.82;;;19.20;98.30;;;;;;6191091;23;20009;-89
2023/05/15 11:10:27;;;;;;;19.15;17.27;;;19.30;98.30;;;;;;6191249;23;20001;-88
2023/05/15 11:13:01;;;;;;;17.52;15.65;;;19.20;98.00;;;;;;6191234;23;20089;-89
2023/05/15 11:15:39;;;;;;;16.77;15.10;;;19.20;98.10;;;;;;6217677;23;20076;-89
2023/05/15 11:18:06;;;;;;;16.05;14.10;;;19.20;98.20;;;;;;6191366;23;20330;-90
2023/05/15 11:20:43;;;;;;;16.67;14.50;;;19.30;98.30;;;;;;6191363;23;20406;-89
2023/05/15 11:23:08;;;;;;;16.20;14.57;;;19.30;98.30;;;;;;6191478;23;20064;-90
2023/05/15 11:25:35;;;;;;;12.32;10.60;;;19.30;98.20;;;;;;6191081;23;20027;-90
2023/05/15 11:28:03;;;;;;;11.00;9.90;;;19.20;96.70;;;;;;6191236;23;20415;-89
2023/05/15 11:30:38;;;;;;;9.70;8.23;;;19.10;96.60;;;;;;6191204;23;20000;-90
2023/05/15 11:33:09;;;;;;;9.80;7.95;;;19.00;96.00;;;;;;6190850;23;20001;-90
2023/05/15 11:35:38;;;;;;;12.13;8.20;;;18.90;95.40;;;;;;6166999;23;20004;-88
2023/05/15 11:38:23;;;;;;;8.02;7.07;;;18.80;95.10;;;;;;6190774;23;19996;-90
2023/05/15 11:40:57;;;;;;;10.20;9.20;;;18.70;95.30;;;;;;6191391;23;20001;-89
2023/05/15 11:43:25;;;;;;;9.95;8.95;;;18.70;95.30;;;;;;6191782;23;20370;-90
2023/05/15 11:46:11;;;;;;;10.60;9.45;;;18.70;95.40;;;;;;6217843;23;19997;-90
2023/05/15 11:48:48;;;;;;;10.75;9.65;;;18.60;95.30;;;;;;6192084;23;20127;-89
2023/05/15 11:51:26;;;;;;;10.88;9.68;;;18.70;95.70;;;;;;6192219;23;20007;-89
2023/05/15 11:53:54;;;;;;;12.18;10.98;;;18.70;95.90;;;;;;6227194;23;19981;-88
2023/05/15 11:56:22;;;;;;;16.10;14.48;;;18.80;96.10;;;;;;6244252;23;19991;-89
2023/05/15 11:58:49;;;;;;;19.95;17.55;;;18.90;96.40;;;;;;6218268;23;20005;-88
2023/05/15 12:01:15;;;;;;;19.08;17.08;;;18.90;96.70;;;;;;6218699;23;19992;-88
2023/05/15 12:03:40;;;;;;;18.23;16.50;;;18.90;97.00;;;;;;6218294;23;19984;-89
2023/05/15 12:06:06;;;;;;;18.77;16.52;;;18.90;97.20;;;;;;6174102;23;20044;-88
2023/05/15 12:08:40;;;;;;;18.70;16.38;;;19.00;97.30;;;;;;6168147;23;20011;-88
2023/05/15 12:11:06;;;;;;;16.55;14.57;;;19.00;97.40;;;;;;6193001;23;20004;-90
2023/05/15 12:13:36;;;;;;;16.73;14.50;;;19.10;97.50;;;;;;6202428;23;20007;-90
2023/05/15 12:16:05;;;;;;;13.80;12.48;;;19.10;97.40;;;;;;6212466;23;20035;-89
2023/05/15 12:18:32;;;;;;;13.07;11.77;;;19.10;97.40;;;;;;6211380;23;20355;-88
2023/05/15 12:21:00;;;;;;;13.35;11.95;;;19.10;97.30;;;;;;6210000;23;20227;-89
2023/05/15 12:23:33;;;;;;;13.85;12.45;;;19.10;97.20;;;;;;6210370;23;20001;-90
2023/05/15 12:26:02;;;;;;;15.30;13.75;;;19.10;97.20;;;;;;6210847;23;20013;-88
2023/05/15 12:28:29;;;;;;;18.98;17.08;;;19.10;97.20;;;;;;6206368;23;20001;-89
2023/05/15 12:30:55;;;;;;;18.63;16.15;;;19.10;97.10;;;;;;6193021;23;20005;-89
2023/05/15 12:33:20;;;;;;;17.35;15.50;;;19.10;97.10;;;;;;6192324;23;20441;-89
2023/05/15 12:35:53;;;;;;;19.80;17.70;;;19.00;97.00;;;;;;6192417;23;20005;-89